createdAt,value
2018-03-23T00:00:28.778Z,100429.32
2018-03-23T00:02:56.355Z,100429.98
2018-03-23T00:05:23.939Z,100424.42
2018-03-23T00:07:51.520Z,100426.97
2018-03-23T00:10:19.127Z,100425.55
2018-03-23T00:12:46.720Z,100429.44
2018-03-23T00:15:15.188Z,100423.50
2018-03-23T00:17:42.818Z,100415.73
2018-03-23T00:20:10.399Z,100410.67
2018-03-23T00:22:37.984Z,100414.31
2018-03-23T00:25:05.566Z,100411.04
2018-03-23T00:27:33.148Z,100413.45
2018-03-23T00:30:00.724Z,100416.88
2018-03-23T00:32:28.299Z,100409.19
2018-03-23T00:34:55.880Z,100413.14
2018-03-23T00:37:23.459Z,100414.73
2018-03-23T00:39:51.049Z,100419.57
2018-03-23T00:42:18.631Z,100430.06
2018-03-23T00:44:46.218Z,100421.58
2018-03-23T00:47:13.809Z,100415.79
2018-03-23T00:49:41.396Z,100421.01
2018-03-23T00:52:08.974Z,100419.36
2018-03-23T00:54:36.555Z,100420.08
2018-03-23T00:57:04.231Z,100418.06
2018-03-23T00:59:31.830Z,100403.84
2018-03-23T01:01:59.416Z,100407.47
2018-03-23T01:04:27.053Z,100411.95
2018-03-23T01:06:55.451Z,100408.12
2018-03-23T01:09:23.072Z,100401.64
2018-03-23T01:11:50.718Z,100399.03
2018-03-23T01:14:18.306Z,100399.91
2018-03-23T01:16:45.894Z,100398.12
2018-03-23T01:19:13.479Z,100398.95
2018-03-23T01:21:41.058Z,100391.29
2018-03-23T01:24:09.168Z,100390.77
2018-03-23T01:26:36.752Z,100388.85
2018-03-23T01:29:04.336Z,100388.10
2018-03-23T01:31:31.915Z,100392.54
2018-03-23T01:33:59.499Z,100384.59
2018-03-23T01:36:28.122Z,100386.95
2018-03-23T01:38:55.704Z,100379.85
2018-03-23T01:41:23.324Z,100378.19
2018-03-23T01:43:50.940Z,100378.98
2018-03-23T01:46:19.387Z,100383.73
2018-03-23T01:48:47.768Z,100385.52
2018-03-23T01:51:16.278Z,100387.17
2018-03-23T01:53:43.891Z,100397.08
2018-03-23T01:56:11.479Z,100396.06
2018-03-23T01:58:39.060Z,100397.30
2018-03-23T02:01:06.644Z,100389.50
2018-03-23T02:03:34.259Z,100389.59
2018-03-23T02:06:01.855Z,100385.89
2018-03-23T02:08:29.583Z,100387.13
2018-03-23T02:10:57.196Z,100386.55
2018-03-23T02:13:24.782Z,100387.78
2018-03-23T02:15:52.400Z,100392.41
2018-03-23T02:18:19.984Z,100388.74
2018-03-23T02:20:47.565Z,100387.50
2018-03-23T02:23:15.152Z,100380.73
2018-03-23T02:25:42.732Z,100384.28
2018-03-23T02:28:10.308Z,100377.66
2018-03-23T02:30:37.985Z,100381.09
2018-03-23T02:33:05.575Z,100382.83
2018-03-23T02:35:33.163Z,100381.73
2018-03-23T02:38:00.739Z,100386.72
2018-03-23T02:40:28.437Z,100378.83
2018-03-23T02:42:56.021Z,100383.97
2018-03-23T02:45:23.605Z,100374.25
2018-03-23T02:47:51.189Z,100376.41
2018-03-23T02:50:18.915Z,100379.61
2018-03-23T02:52:46.501Z,100373.39
2018-03-23T02:55:14.141Z,100370.83
2018-03-23T02:57:41.724Z,100371.53
2018-03-23T03:00:09.318Z,100373.05
2018-03-23T03:02:37.688Z,100372.11
2018-03-23T03:05:05.272Z,100366.08
2018-03-23T03:07:33.747Z,100374.78
2018-03-23T03:10:01.326Z,100372.63
2018-03-23T03:12:28.907Z,100373.67
2018-03-23T03:14:56.490Z,100371.12
2018-03-23T03:17:25.011Z,100370.95
2018-03-23T03:19:52.596Z,100368.71
2018-03-23T03:22:20.179Z,100370.64
2018-03-23T03:24:47.761Z,100371.52
2018-03-23T03:27:15.396Z,100375.68
2018-03-23T03:29:43.480Z,100378.02
2018-03-23T03:32:11.060Z,100380.20
2018-03-23T03:34:38.649Z,100385.42
2018-03-23T03:37:06.243Z,100383.14
2018-03-23T03:39:33.834Z,100384.75
2018-03-23T03:42:01.424Z,100391.30
2018-03-23T03:44:29.004Z,100388.71
2018-03-23T03:46:56.595Z,100385.37
2018-03-23T03:49:24.260Z,100390.03
2018-03-23T03:51:51.887Z,100390.59
2018-03-23T03:54:19.588Z,100391.52
2018-03-23T03:56:47.167Z,100393.27
2018-03-23T03:59:14.746Z,100391.05
2018-03-23T04:01:42.323Z,100389.14
2018-03-23T04:04:09.907Z,100396.16
2018-03-23T04:06:37.492Z,100385.93
2018-03-23T04:09:05.084Z,100386.17
2018-03-23T04:11:32.663Z,100395.42
2018-03-23T04:14:00.478Z,100389.80
2018-03-23T04:16:28.060Z,100396.17
2018-03-23T04:18:55.639Z,100395.84
2018-03-23T04:21:23.228Z,100392.61
2018-03-23T04:23:50.810Z,100393.14
2018-03-23T04:26:18.388Z,100389.16
2018-03-23T04:28:46.146Z,100384.75
2018-03-23T04:31:13.729Z,100390.85
2018-03-23T04:33:42.267Z,100381.52
2018-03-23T04:36:09.847Z,100376.58
2018-03-23T04:38:37.431Z,100374.44
2018-03-23T04:41:05.014Z,100373.45
2018-03-23T04:43:32.600Z,100369.72
2018-03-23T04:46:00.184Z,100366.09
2018-03-23T04:48:27.768Z,100373.44
2018-03-23T04:50:55.351Z,100365.59
2018-03-23T04:53:22.931Z,100366.37
2018-03-23T04:55:50.511Z,100361.77
2018-03-23T04:58:18.126Z,100367.89
2018-03-23T05:00:45.708Z,100357.86
2018-03-23T05:03:13.963Z,100356.70
2018-03-23T05:05:41.611Z,100358.31
2018-03-23T05:08:09.200Z,100357.12
2018-03-23T05:10:36.775Z,100359.09
2018-03-23T05:13:04.357Z,100358.53
2018-03-23T05:15:31.934Z,100348.96
2018-03-23T05:17:59.518Z,100356.64
2018-03-23T05:20:27.101Z,100354.75
2018-03-23T05:22:54.686Z,100357.72
2018-03-23T05:25:22.420Z,100352.16
2018-03-23T05:27:49.999Z,100356.61
2018-03-23T05:30:17.615Z,100347.39
2018-03-23T05:32:45.202Z,100356.30
2018-03-23T05:35:12.783Z,100353.46
2018-03-23T05:37:40.365Z,100353.55
2018-03-23T05:40:08.726Z,100364.16
2018-03-23T05:42:37.198Z,100355.17
2018-03-23T05:45:04.779Z,100359.80
2018-03-23T05:47:32.360Z,100355.88
2018-03-23T05:50:01.587Z,100356.88
2018-03-23T05:52:30.012Z,100362.19
2018-03-23T05:54:58.584Z,100366.90
2018-03-23T05:57:26.167Z,100369.46
2018-03-23T05:59:54.538Z,100368.53
2018-03-23T06:02:22.910Z,100364.83
2018-03-23T06:04:50.492Z,100374.86
2018-03-23T06:07:18.091Z,100373.45
2018-03-23T06:09:45.675Z,100375.86
2018-03-23T06:12:13.255Z,100369.82
2018-03-23T06:14:40.836Z,100371.98
2018-03-23T06:17:08.419Z,100375.50
2018-03-23T06:19:35.995Z,100381.89
2018-03-23T06:22:03.607Z,100379.48
2018-03-23T06:24:31.191Z,100372.63
2018-03-23T06:26:58.781Z,100371.53
2018-03-23T06:29:26.469Z,100376.82
2018-03-23T06:31:54.052Z,100377.97
2018-03-23T06:34:21.640Z,100370.98
2018-03-23T06:36:49.219Z,100378.63
2018-03-23T06:39:16.798Z,100379.47
2018-03-23T06:41:44.384Z,100381.60
2018-03-23T06:44:12.019Z,100384.75
2018-03-23T06:46:39.612Z,100379.70
2018-03-23T06:49:07.188Z,100386.44
2018-03-23T06:51:34.768Z,100393.34
2018-03-23T06:54:02.355Z,100384.05
2018-03-23T06:56:29.932Z,100389.14
2018-03-23T06:58:57.511Z,100384.20
2018-03-23T07:01:25.700Z,100380.83
2018-03-23T07:03:54.147Z,100384.70
2018-03-23T07:06:21.729Z,100384.58
2018-03-23T07:08:49.311Z,100391.47
2018-03-23T07:11:16.894Z,100395.52
2018-03-23T07:13:44.479Z,100396.22
2018-03-23T07:16:12.061Z,100393.86
2018-03-23T07:18:40.448Z,100387.81
2018-03-23T07:21:08.027Z,100386.14
2018-03-23T07:23:35.645Z,100399.52
2018-03-23T07:26:03.448Z,100392.95
2018-03-23T07:28:31.032Z,100396.48
2018-03-23T07:30:58.638Z,100399.02
2018-03-23T07:33:26.221Z,100398.91
2018-03-23T07:35:53.808Z,100395.97
2018-03-23T07:38:21.392Z,100400.31
2018-03-23T07:40:48.978Z,100398.86
2018-03-23T07:43:16.671Z,100398.36
2018-03-23T07:45:44.256Z,100399.00
2018-03-23T07:48:11.840Z,100400.55
2018-03-23T07:50:39.649Z,100389.37
2018-03-23T07:53:07.232Z,100404.63
2018-03-23T07:55:34.815Z,100407.31
2018-03-23T07:58:02.468Z,100409.52
2018-03-23T08:00:31.207Z,100402.08
2018-03-23T08:02:59.065Z,100404.30
2018-03-23T08:05:27.310Z,100405.81
2018-03-23T08:07:55.043Z,100408.77
2018-03-23T08:10:22.628Z,100409.69
2018-03-23T08:12:50.208Z,100400.20
2018-03-23T08:15:17.791Z,100398.11
2018-03-23T08:17:45.374Z,100401.92
2018-03-23T08:20:12.991Z,100399.73
2018-03-23T08:22:40.570Z,100400.11
2018-03-23T08:25:08.165Z,100395.48
2018-03-23T08:27:35.764Z,100401.31
2018-03-23T08:30:04.256Z,100396.51
2018-03-23T08:32:31.857Z,100400.66
2018-03-23T08:34:59.683Z,100408.22
2018-03-23T08:37:27.299Z,100405.39
2018-03-23T08:39:54.880Z,100403.70
2018-03-23T08:42:23.298Z,100403.13
2018-03-23T08:44:50.956Z,100394.20
2018-03-23T08:47:18.551Z,100396.13
2018-03-23T08:49:46.142Z,100400.61
2018-03-23T08:52:13.727Z,100398.48
2018-03-23T08:54:41.322Z,100390.20
2018-03-23T08:57:08.943Z,100398.89
2018-03-23T08:59:36.530Z,100395.52
2018-03-23T09:02:04.281Z,100397.23
2018-03-23T09:04:31.835Z,100391.00
2018-03-23T09:06:59.411Z,100393.61
2018-03-23T09:09:27.055Z,100400.00
2018-03-23T09:11:54.635Z,100407.16
2018-03-23T09:14:22.210Z,100407.13
2018-03-23T09:16:49.798Z,100405.45
2018-03-23T09:19:17.383Z,100404.03
2018-03-23T09:21:44.976Z,100409.24
2018-03-23T09:24:12.592Z,100406.88
2018-03-23T09:26:40.234Z,100403.75
2018-03-23T09:29:07.820Z,100402.42
2018-03-23T09:31:35.400Z,100401.73
2018-03-23T09:34:03.020Z,100396.81
2018-03-23T09:36:30.607Z,100400.35
2018-03-23T09:38:58.191Z,100392.89
2018-03-23T09:41:25.780Z,100395.57
2018-03-23T09:43:53.368Z,100393.05
2018-03-23T09:46:20.958Z,100385.45
2018-03-23T09:48:48.544Z,100390.77
2018-03-23T09:51:16.199Z,100386.14
2018-03-23T09:53:43.783Z,100389.33
2018-03-23T09:56:11.372Z,100388.70
2018-03-23T09:58:39.779Z,100387.44
2018-03-23T10:01:08.336Z,100391.22
2018-03-23T10:03:35.927Z,100387.25
2018-03-23T10:06:03.516Z,100385.77
2018-03-23T10:08:31.138Z,100383.14
2018-03-23T10:10:58.722Z,100381.77
2018-03-23T10:13:27.220Z,100382.48
2018-03-23T10:15:54.800Z,100380.10
2018-03-23T10:18:22.439Z,100382.27
2018-03-23T10:20:50.055Z,100381.19
2018-03-23T10:23:18.583Z,100374.59
2018-03-23T10:25:46.317Z,100372.53
2018-03-23T10:28:13.898Z,100373.58
2018-03-23T10:30:42.179Z,100366.27
2018-03-23T10:33:09.755Z,100361.86
2018-03-23T10:35:37.340Z,100366.47
2018-03-23T10:38:04.950Z,100366.64
2018-03-23T10:40:32.535Z,100368.66
2018-03-23T10:43:00.114Z,100360.92
2018-03-23T10:45:27.736Z,100366.05
2018-03-23T10:47:55.320Z,100366.33
2018-03-23T10:50:22.909Z,100366.14
2018-03-23T10:52:50.564Z,100364.27
2018-03-23T10:55:18.351Z,100364.39
2018-03-23T10:57:46.726Z,100360.34
2018-03-23T11:00:15.145Z,100373.00
2018-03-23T11:02:48.461Z,100367.86
2018-03-23T11:05:16.747Z,100370.86
2018-03-23T11:07:45.175Z,100359.80
2018-03-23T11:10:12.755Z,100357.72
2018-03-23T11:12:40.973Z,100363.10
2018-03-23T11:15:08.591Z,100358.95
2018-03-23T11:17:36.171Z,100363.14
2018-03-23T11:20:03.747Z,100366.31
2018-03-23T11:22:31.336Z,100360.31
2018-03-23T11:24:58.952Z,100367.04
2018-03-23T11:27:26.536Z,100366.44
2018-03-23T11:29:54.155Z,100366.52
2018-03-23T11:32:21.839Z,100357.04
2018-03-23T11:34:49.420Z,100363.94
2018-03-23T11:37:17.007Z,100359.37
2018-03-23T11:39:44.582Z,100358.95
2018-03-23T11:42:12.162Z,100356.70
2018-03-23T11:44:39.742Z,100358.36
2018-03-23T11:47:07.328Z,100353.55
2018-03-23T11:49:35.459Z,100348.22
2018-03-23T11:52:03.203Z,100348.78
2018-03-23T11:54:31.471Z,100337.80
2018-03-23T11:56:59.863Z,100335.65
2018-03-23T11:59:27.450Z,100336.39
2018-03-23T12:01:55.036Z,100334.39
2018-03-23T12:04:24.241Z,100333.66
2018-03-23T12:06:51.896Z,100332.17
2018-03-23T12:12:13.352Z,100333.12
2018-03-23T12:14:41.707Z,100336.88
2018-03-23T12:17:09.496Z,100331.27
2018-03-23T12:19:37.111Z,100332.14
2018-03-23T12:22:04.690Z,100330.13
2018-03-23T12:24:32.277Z,100334.92
2018-03-23T12:26:59.859Z,100331.42
2018-03-23T12:29:27.433Z,100333.48
2018-03-23T12:31:55.061Z,100333.53
2018-03-23T12:34:28.691Z,100333.27
2018-03-23T12:36:56.311Z,100323.48
2018-03-23T12:39:23.903Z,100324.41
2018-03-23T12:41:52.399Z,100316.94
2018-03-23T12:44:20.932Z,100317.17
2018-03-23T12:46:49.279Z,100318.85
2018-03-23T12:49:17.671Z,100314.00
2018-03-23T12:51:46.051Z,100300.62
2018-03-23T12:54:13.634Z,100300.44
2018-03-23T12:56:41.227Z,100296.22
2018-03-23T12:59:08.812Z,100297.45
2018-03-23T13:01:37.401Z,100297.54
2018-03-23T13:04:04.979Z,100298.84
2018-03-23T13:06:32.567Z,100299.81
2018-03-23T13:09:00.151Z,100298.16
2018-03-23T13:11:27.738Z,100295.25
2018-03-23T13:13:55.323Z,100291.20
2018-03-23T13:16:22.895Z,100294.37
2018-03-23T13:18:50.483Z,100293.48
2018-03-23T13:21:18.062Z,100296.24
2018-03-23T13:23:45.683Z,100294.11
2018-03-23T13:26:14.169Z,100293.32
2018-03-23T13:28:42.539Z,100284.58
2018-03-23T13:31:10.132Z,100288.50
2018-03-23T13:33:38.552Z,100286.77
2018-03-23T13:36:06.220Z,100284.38
2018-03-23T13:38:33.798Z,100283.00
2018-03-23T13:41:01.388Z,100277.98
2018-03-23T13:43:28.980Z,100272.07
2018-03-23T13:45:56.599Z,100274.61
2018-03-23T13:48:24.187Z,100268.30
2018-03-23T13:50:51.772Z,100269.05
2018-03-23T13:53:19.356Z,100261.56
2018-03-23T13:55:46.979Z,100261.11
2018-03-23T13:58:14.592Z,100268.27
2018-03-23T14:00:48.261Z,100261.54
2018-03-23T14:03:15.862Z,100263.86
2018-03-23T14:05:43.455Z,100261.91
2018-03-23T14:08:11.035Z,100263.74
2018-03-23T14:10:38.620Z,100255.31
2018-03-23T14:13:06.239Z,100255.56
2018-03-23T14:15:33.826Z,100253.54
2018-03-23T14:18:01.451Z,100249.28
2018-03-23T14:20:29.035Z,100251.16
2018-03-23T14:22:56.728Z,100248.84
2018-03-23T14:25:24.308Z,100248.42
2018-03-23T14:27:51.893Z,100238.80
2018-03-23T14:30:19.487Z,100234.60
2018-03-23T14:32:47.068Z,100235.56
2018-03-23T14:35:14.650Z,100233.33
2018-03-23T14:37:42.242Z,100231.44
2018-03-23T14:40:09.822Z,100228.55
2018-03-23T14:42:37.401Z,100218.59
2018-03-23T14:45:04.980Z,100220.00
2018-03-23T14:47:32.560Z,100221.77
2018-03-23T14:50:00.144Z,100217.55
2018-03-23T14:52:27.896Z,100227.73
2018-03-23T14:54:55.468Z,100224.70
2018-03-23T14:57:23.088Z,100226.56
2018-03-23T14:59:51.583Z,100220.97
2018-03-23T15:02:19.164Z,100221.59
2018-03-23T15:04:46.752Z,100220.56
2018-03-23T15:07:14.440Z,100216.53
2018-03-23T15:09:42.119Z,100206.02
2018-03-23T15:12:10.612Z,100203.70
2018-03-23T15:14:38.196Z,100206.95
2018-03-23T15:17:05.818Z,100198.74
2018-03-23T15:19:33.398Z,100190.70
2018-03-23T15:22:00.983Z,100189.30
2018-03-23T15:24:28.637Z,100196.90
2018-03-23T15:26:56.287Z,100198.75
2018-03-23T15:29:23.873Z,100205.74
2018-03-23T15:31:51.455Z,100201.48
2018-03-23T15:34:19.040Z,100199.28
2018-03-23T15:36:46.640Z,100199.41
2018-03-23T15:39:14.225Z,100198.72
2018-03-23T15:41:41.814Z,100193.15
2018-03-23T15:44:09.402Z,100197.23
2018-03-23T15:46:36.979Z,100194.84
2018-03-23T15:49:04.559Z,100196.75
2018-03-23T15:51:32.144Z,100190.02
2018-03-23T15:53:59.799Z,100191.88
2018-03-23T15:56:27.383Z,100187.53
2018-03-23T15:58:54.963Z,100191.73
2018-03-23T16:01:22.548Z,100197.32
2018-03-23T16:03:51.077Z,100198.30
2018-03-23T16:06:18.660Z,100195.16
2018-03-23T16:08:47.212Z,100200.69
2018-03-23T16:11:15.760Z,100194.72
2018-03-23T16:13:43.346Z,100198.06
2018-03-23T16:16:11.003Z,100197.52
2018-03-23T16:18:38.584Z,100194.24
2018-03-23T16:21:06.170Z,100198.95
2018-03-23T16:23:34.657Z,100202.00
2018-03-23T16:26:02.237Z,100206.92
2018-03-23T16:28:29.820Z,100202.97
2018-03-23T16:30:57.408Z,100205.80
2018-03-23T16:33:25.896Z,100205.83
2018-03-23T16:35:54.183Z,100203.83
2018-03-23T16:38:22.544Z,100202.95
2018-03-23T16:40:50.123Z,100208.94
2018-03-23T16:43:18.513Z,100204.44
2018-03-23T16:45:46.914Z,100209.84
2018-03-23T16:48:15.414Z,100216.13
2018-03-23T16:50:43.784Z,100211.95
2018-03-23T16:53:11.363Z,100207.16
2018-03-23T16:55:39.906Z,100209.28
2018-03-23T16:58:08.426Z,100206.82
2018-03-23T17:00:36.548Z,100202.94
2018-03-23T17:03:04.129Z,100210.19
2018-03-23T17:05:31.712Z,100216.52
2018-03-23T17:08:00.081Z,100205.25
2018-03-23T17:10:27.672Z,100205.78
2018-03-23T17:12:56.098Z,100207.22
2018-03-23T17:15:23.687Z,100205.00
2018-03-23T17:17:51.308Z,100217.31
2018-03-23T17:20:18.891Z,100213.67
2018-03-23T17:22:46.525Z,100209.00
2018-03-23T17:25:14.109Z,100205.73
2018-03-23T17:27:41.695Z,100206.03
2018-03-23T17:30:09.411Z,100209.87
2018-03-23T17:32:37.008Z,100219.52
2018-03-23T17:35:04.602Z,100217.01
2018-03-23T17:37:32.189Z,100217.08
2018-03-23T17:39:59.775Z,100215.50
2018-03-23T17:42:27.466Z,100214.25
2018-03-23T17:44:55.065Z,100221.64
2018-03-23T17:47:22.657Z,100224.67
2018-03-23T17:49:51.191Z,100226.36
2018-03-23T17:52:19.555Z,100222.00
2018-03-23T17:54:47.868Z,100222.94
2018-03-23T17:57:15.447Z,100228.34
2018-03-23T17:59:43.847Z,100225.77
2018-03-23T18:02:11.638Z,100231.74
2018-03-23T18:04:39.227Z,100229.73
2018-03-23T18:07:06.807Z,100232.16
2018-03-23T18:09:34.417Z,100226.30
2018-03-23T18:12:02.083Z,100233.63
2018-03-23T18:14:29.664Z,100227.63
2018-03-23T18:16:57.251Z,100220.23
2018-03-23T18:19:24.836Z,100231.53
2018-03-23T18:21:52.415Z,100217.22
2018-03-23T18:24:20.832Z,100223.56
2018-03-23T18:26:48.482Z,100223.59
2018-03-23T18:29:16.058Z,100239.77
2018-03-23T18:31:43.639Z,100232.70
2018-03-23T18:34:11.256Z,100233.36
2018-03-23T18:36:38.878Z,100235.48
2018-03-23T18:39:06.494Z,100236.63
2018-03-23T18:41:34.124Z,100243.03
2018-03-23T18:44:01.708Z,100240.47
2018-03-23T18:46:29.322Z,100246.16
2018-03-23T18:48:57.708Z,100249.97
2018-03-23T18:51:25.291Z,100244.25
2018-03-23T18:53:53.052Z,100241.98
2018-03-23T18:56:20.633Z,100247.59
2018-03-23T18:58:48.269Z,100255.92
2018-03-23T19:01:15.855Z,100255.54
2018-03-23T19:03:43.439Z,100245.30
2018-03-23T19:06:11.830Z,100244.91
2018-03-23T19:08:39.410Z,100249.44
2018-03-23T19:11:06.992Z,100253.94
2018-03-23T19:13:36.357Z,100256.74
2018-03-23T19:16:03.939Z,100258.47
2018-03-23T19:18:32.097Z,100253.73
2018-03-23T19:20:59.683Z,100250.69
2018-03-23T19:23:27.271Z,100257.61
2018-03-23T19:25:54.859Z,100257.76
2018-03-23T19:28:22.449Z,100252.12
2018-03-23T19:30:50.064Z,100257.94
2018-03-23T19:33:17.649Z,100254.88
2018-03-23T19:35:45.222Z,100251.30
2018-03-23T19:38:12.851Z,100253.20
2018-03-23T19:40:40.432Z,100255.56
2018-03-23T19:43:08.034Z,100250.55
2018-03-23T19:45:35.638Z,100254.00
2018-03-23T19:48:03.219Z,100256.73
2018-03-23T19:50:30.799Z,100256.67
2018-03-23T19:52:59.187Z,100258.41
2018-03-23T19:55:26.763Z,100256.19
2018-03-23T19:57:55.059Z,100249.61
2018-03-23T20:00:22.674Z,100242.98
2018-03-23T20:02:51.180Z,100246.75
2018-03-23T20:05:18.774Z,100243.09
2018-03-23T20:07:47.249Z,100249.50
2018-03-23T20:10:14.835Z,100251.41
2018-03-23T20:12:42.491Z,100244.27
2018-03-23T20:15:10.083Z,100239.92
2018-03-23T20:17:43.116Z,100246.02
2018-03-23T20:20:16.247Z,100234.97
2018-03-23T20:22:43.931Z,100240.25
2018-03-23T20:25:11.576Z,100238.61
2018-03-23T20:27:44.770Z,100245.78
2018-03-23T20:30:12.386Z,100246.47
2018-03-23T20:32:40.055Z,100248.51
2018-03-23T20:35:07.641Z,100249.61
2018-03-23T20:37:35.535Z,100255.11
2018-03-23T20:40:03.187Z,100254.19
2018-03-23T20:42:30.880Z,100251.02
2018-03-23T20:44:58.508Z,100253.89
2018-03-23T20:47:26.154Z,100258.16
2018-03-23T20:49:53.776Z,100245.31
2018-03-23T20:52:21.460Z,100246.81
2018-03-23T20:54:49.229Z,100243.30
2018-03-23T20:57:16.814Z,100240.69
2018-03-23T20:59:44.490Z,100246.94
2018-03-23T21:02:12.068Z,100243.34
2018-03-23T21:04:39.694Z,100238.44
2018-03-23T21:07:07.275Z,100245.42
2018-03-23T21:09:35.783Z,100247.17
2018-03-23T21:12:03.368Z,100240.23
2018-03-23T21:14:31.015Z,100239.65
2018-03-23T21:16:58.659Z,100237.91
2018-03-23T21:19:26.372Z,100247.28
2018-03-23T21:21:54.070Z,100244.70
2018-03-23T21:24:21.735Z,100249.67
2018-03-23T21:26:49.396Z,100240.41
2018-03-23T21:29:17.014Z,100242.77
2018-03-23T21:31:44.599Z,100242.86
2018-03-23T21:34:12.256Z,100240.58
2018-03-23T21:36:39.848Z,100236.01
2018-03-23T21:39:07.471Z,100236.52
2018-03-23T21:41:35.260Z,100233.70
2018-03-23T21:44:02.995Z,100236.45
2018-03-23T21:46:30.678Z,100232.00
2018-03-23T21:48:59.219Z,100225.34
2018-03-23T21:51:26.804Z,100232.98
2018-03-23T21:53:54.429Z,100233.73
2018-03-23T21:56:22.055Z,100231.23
2018-03-23T21:58:49.645Z,100230.03
2018-03-23T22:01:17.298Z,100228.38
2018-03-23T22:03:44.951Z,100238.42
2018-03-23T22:06:12.541Z,100231.66
2018-03-23T22:08:40.132Z,100230.09
2018-03-23T22:11:07.780Z,100228.41
2018-03-23T22:13:35.365Z,100225.46
2018-03-23T22:16:02.972Z,100224.50
2018-03-23T22:18:30.634Z,100225.20
2018-03-23T22:20:58.230Z,100228.54
2018-03-23T22:23:25.926Z,100226.69
2018-03-23T22:25:53.619Z,100224.17
2018-03-23T22:28:21.278Z,100229.33
2018-03-23T22:30:48.947Z,100217.32
2018-03-23T22:33:16.524Z,100219.37
2018-03-23T22:35:44.117Z,100222.12
2018-03-23T22:38:11.698Z,100223.44
2018-03-23T22:40:39.367Z,100222.00
2018-03-23T22:43:07.227Z,100217.04
2018-03-23T22:45:34.918Z,100216.28
2018-03-23T22:48:02.616Z,100217.57
2018-03-23T22:50:30.243Z,100215.50
2018-03-23T22:52:57.885Z,100213.45
2018-03-23T22:55:25.463Z,100217.30
2018-03-23T22:57:53.085Z,100215.95
2018-03-23T23:00:20.740Z,100213.98
2018-03-23T23:02:48.319Z,100214.54
2018-03-23T23:05:16.054Z,100214.54
2018-03-23T23:07:43.641Z,100205.93
2018-03-23T23:10:11.248Z,100208.03
2018-03-23T23:12:39.760Z,100204.55
2018-03-23T23:15:07.382Z,100198.08
2018-03-23T23:17:35.683Z,100203.09
2018-03-23T23:20:04.099Z,100201.19
2018-03-23T23:22:32.606Z,100199.98
2018-03-23T23:25:01.074Z,100196.10
2018-03-23T23:27:29.470Z,100204.60
2018-03-23T23:29:57.854Z,100205.33
2018-03-23T23:32:25.448Z,100203.63
2018-03-23T23:34:53.031Z,100195.85
2018-03-23T23:37:21.480Z,100186.66
2018-03-23T23:39:49.059Z,100182.24
2018-03-23T23:42:17.618Z,100191.47
2018-03-23T23:44:46.126Z,100188.16
2018-03-23T23:47:13.750Z,100180.75
2018-03-23T23:49:41.328Z,100185.08
2018-03-23T23:52:08.912Z,100180.85
2018-03-23T23:54:36.506Z,100181.41
2018-03-23T23:57:04.087Z,100186.20
2018-03-23T23:59:32.502Z,100189.44
